createdAt,value
2022-11-03T00:02:19.097Z,96411.34
2022-11-03T00:04:47.924Z,96436.81
2022-11-03T00:07:22.368Z,96410.22
2022-11-03T00:09:51.198Z,96403.25
2022-11-03T00:12:26.236Z,96412.91
2022-11-03T00:15:10.659Z,96422.63
2022-11-03T00:17:42.295Z,96430.81
2022-11-03T00:20:13.582Z,96423.81
2022-11-03T00:22:45.072Z,96437.78
2022-11-03T00:25:19.607Z,96423.09
2022-11-03T00:27:55.917Z,96453.53
2022-11-03T00:30:27.510Z,96475.53
2022-11-03T00:32:56.436Z,96441.31
2022-11-03T00:35:24.779Z,96441.56
2022-11-03T00:37:57.040Z,96457.97
2022-11-03T00:40:28.331Z,96432.28
2022-11-03T00:42:59.515Z,96443.69
2022-11-03T00:45:32.685Z,96476.78
2022-11-03T00:48:21.717Z,96466.81
2022-11-03T00:50:54.868Z,96441.00
2022-11-03T00:53:28.455Z,96444.22
2022-11-03T00:55:57.271Z,96472.56
2022-11-03T00:58:27.197Z,96465.38
2022-11-03T01:01:08.121Z,96458.34
2022-11-03T01:04:04.459Z,96448.28
2022-11-03T01:06:53.187Z,96468.22
2022-11-03T01:09:37.392Z,96449.47
2022-11-03T01:12:10.301Z,96480.25
2022-11-03T01:14:43.876Z,96480.72
2022-11-03T01:17:19.610Z,96468.38
2022-11-03T01:19:48.541Z,96467.50
2022-11-03T01:22:21.711Z,96471.38
2022-11-03T01:24:52.391Z,96515.06
2022-11-03T01:27:27.231Z,96471.81
2022-11-03T01:29:57.969Z,96492.84
2022-11-03T01:32:31.131Z,96504.66
2022-11-03T01:35:01.172Z,96472.69
2022-11-03T01:37:31.452Z,96470.72
2022-11-03T01:40:05.981Z,96494.84
2022-11-03T01:42:34.334Z,96459.19
2022-11-03T01:47:54.743Z,96458.66
2022-11-03T01:50:23.497Z,96491.84
2022-11-03T01:52:59.335Z,96479.47
2022-11-03T01:55:35.095Z,96512.22
2022-11-03T01:58:06.730Z,96516.00
2022-11-03T02:00:37.033Z,96497.09
2022-11-03T02:03:07.093Z,96516.13
2022-11-03T02:05:41.854Z,96460.91
2022-11-03T02:08:12.187Z,96515.78
2022-11-03T02:10:54.540Z,96476.84
2022-11-03T02:13:28.243Z,96517.91
2022-11-03T02:16:02.592Z,96498.19
2022-11-03T02:18:38.146Z,96481.16
2022-11-03T02:21:10.364Z,96522.44
2022-11-03T02:24:00.067Z,96501.19
2022-11-03T02:26:50.686Z,96492.69
2022-11-03T02:29:25.027Z,96502.63
2022-11-03T02:32:07.700Z,96513.69
2022-11-03T02:34:45.469Z,96527.88
2022-11-03T02:37:20.608Z,96522.13
2022-11-03T02:39:55.019Z,96519.81
2022-11-03T02:42:25.075Z,96499.69
2022-11-03T02:44:55.676Z,96530.22
2022-11-03T02:47:26.285Z,96531.66
2022-11-03T02:52:40.916Z,96540.41
2022-11-03T02:55:19.443Z,96522.59
2022-11-03T02:57:57.249Z,96538.41
2022-11-03T03:00:25.153Z,96516.81
2022-11-03T03:03:16.111Z,96532.22
2022-11-03T03:05:45.813Z,96526.47
2022-11-03T03:08:15.375Z,96530.91
2022-11-03T03:10:48.598Z,96541.41
2022-11-03T03:13:20.132Z,96520.16
2022-11-03T03:16:03.402Z,96534.66
2022-11-03T03:18:51.687Z,96549.38
2022-11-03T03:21:26.749Z,96559.81
2022-11-03T03:24:05.816Z,96561.88
2022-11-03T03:26:45.965Z,96549.47
2022-11-03T03:29:23.719Z,96572.88
2022-11-03T03:32:01.213Z,96550.81
2022-11-03T03:34:35.354Z,96571.97
2022-11-03T03:37:06.266Z,96571.88
2022-11-03T03:39:38.319Z,96586.06
2022-11-03T03:42:09.481Z,96590.50
2022-11-03T03:44:40.275Z,96591.38
2022-11-03T03:47:26.629Z,96598.78
2022-11-03T03:49:54.151Z,96594.59
2022-11-03T03:52:22.196Z,96598.13
2022-11-03T03:54:49.921Z,96589.13
2022-11-03T03:57:23.634Z,96579.38
2022-11-03T03:59:51.254Z,96593.50
2022-11-03T04:02:20.059Z,96567.31
2022-11-03T04:04:47.766Z,96593.69
2022-11-03T04:07:33.421Z,96596.56
2022-11-03T04:10:00.904Z,96595.47
2022-11-03T04:12:46.740Z,96597.91
2022-11-03T04:15:32.902Z,96597.25
2022-11-03T04:18:19.046Z,96610.75
2022-11-03T04:21:05.473Z,96599.78
2022-11-03T04:23:32.911Z,96611.41
2022-11-03T04:26:02.809Z,96612.00
2022-11-03T04:28:30.277Z,96615.28
2022-11-03T04:31:00.228Z,96627.38
2022-11-03T04:33:29.851Z,96625.72
2022-11-03T04:36:00.016Z,96599.88
2022-11-03T04:38:29.659Z,96593.91
2022-11-03T04:40:59.148Z,96634.38
2022-11-03T04:43:38.269Z,96623.19
2022-11-03T04:46:09.630Z,96633.25
2022-11-03T04:48:37.489Z,96630.69
2022-11-03T04:51:25.820Z,96641.69
2022-11-03T04:53:56.153Z,96640.47
2022-11-03T04:56:25.544Z,96629.25
2022-11-03T04:58:54.203Z,96624.94
2022-11-03T05:01:24.832Z,96633.03
2022-11-03T05:03:56.888Z,96632.13
2022-11-03T05:06:28.720Z,96650.09
2022-11-03T05:09:00.833Z,96636.13
2022-11-03T05:11:34.063Z,96635.00
2022-11-03T05:14:07.135Z,96640.00
2022-11-03T05:16:35.900Z,96633.69
2022-11-03T05:19:03.617Z,96649.66
2022-11-03T05:21:31.265Z,96636.91
2022-11-03T05:24:03.375Z,96650.75
2022-11-03T05:26:34.862Z,96654.53
2022-11-03T05:29:04.660Z,96656.41
2022-11-03T05:31:35.926Z,96658.81
2022-11-03T05:34:38.569Z,96670.47
2022-11-03T05:37:26.712Z,96655.81
2022-11-03T05:40:00.880Z,96666.25
2022-11-03T05:42:33.230Z,96649.19
2022-11-03T05:45:04.968Z,96652.72
2022-11-03T05:47:38.895Z,96664.34
2022-11-03T05:50:19.867Z,96648.84
2022-11-03T05:52:52.177Z,96655.06
2022-11-03T05:55:32.145Z,96665.25
2022-11-03T05:58:05.327Z,96653.16
2022-11-03T06:00:38.201Z,96667.28
2022-11-03T06:03:06.623Z,96652.41
2022-11-03T06:05:35.233Z,96647.97
2022-11-03T06:08:12.469Z,96661.28
2022-11-03T06:10:45.656Z,96670.69
2022-11-03T06:13:18.997Z,96672.25
2022-11-03T06:15:50.136Z,96664.72
2022-11-03T06:18:27.157Z,96666.19
2022-11-03T06:21:02.720Z,96642.34
2022-11-03T06:23:35.736Z,96674.50
2022-11-03T06:26:04.431Z,96670.94
2022-11-03T06:28:39.706Z,96677.25
2022-11-03T06:31:22.907Z,96685.44
2022-11-03T06:33:53.058Z,96689.66
2022-11-03T06:36:23.636Z,96678.94
2022-11-03T06:38:57.971Z,96670.16
2022-11-03T06:41:28.192Z,96682.44
2022-11-03T06:43:56.627Z,96685.22
2022-11-03T06:46:26.904Z,96693.22
2022-11-03T06:48:57.875Z,96677.03
2022-11-03T06:51:28.345Z,96684.56
2022-11-03T06:53:59.365Z,96693.00
2022-11-03T06:56:31.940Z,96685.00
2022-11-03T06:58:59.315Z,96690.66
2022-11-03T07:01:35.730Z,96695.53
2022-11-03T07:04:16.111Z,96693.09
2022-11-03T07:06:53.021Z,96687.66
2022-11-03T07:09:24.424Z,96680.78
2022-11-03T07:11:58.336Z,96692.31
2022-11-03T07:14:35.440Z,96673.59
2022-11-03T07:17:06.052Z,96675.13
2022-11-03T07:19:44.152Z,96664.06
2022-11-03T07:22:11.731Z,96701.75
2022-11-03T07:24:44.908Z,96679.13
2022-11-03T07:27:25.937Z,96661.28
2022-11-03T07:29:59.147Z,96689.78
2022-11-03T07:32:36.517Z,96680.78
2022-11-03T07:36:00.335Z,96684.44
2022-11-03T07:38:26.528Z,96699.63
2022-11-03T07:40:57.947Z,96654.19
2022-11-03T07:43:35.192Z,96669.06
2022-11-03T07:46:04.749Z,96690.00
2022-11-03T07:48:48.831Z,96713.72
2022-11-03T07:51:33.068Z,96674.25
2022-11-03T07:54:09.584Z,96713.59
2022-11-03T07:56:49.922Z,96694.78
2022-11-03T07:59:33.781Z,96684.53
2022-11-03T08:02:03.483Z,96688.34
2022-11-03T08:04:34.680Z,96717.38
2022-11-03T08:07:02.471Z,96704.50
2022-11-03T08:09:30.094Z,96699.63
2022-11-03T08:11:59.020Z,96711.94
2022-11-03T08:14:35.735Z,96682.34
2022-11-03T08:17:04.247Z,96697.66
2022-11-03T08:19:37.393Z,96723.59
2022-11-03T08:22:04.981Z,96733.47
2022-11-03T08:24:32.729Z,96720.72
2022-11-03T08:27:00.421Z,96701.63
2022-11-03T08:29:28.089Z,96707.63
2022-11-03T08:31:55.655Z,96721.81
2022-11-03T08:34:23.348Z,96711.72
2022-11-03T08:36:50.906Z,96718.38
2022-11-03T08:39:18.431Z,96726.03
2022-11-03T08:41:45.950Z,96721.16
2022-11-03T08:44:13.494Z,96708.84
2022-11-03T08:46:41.286Z,96715.16
2022-11-03T08:49:08.935Z,96725.91
2022-11-03T08:51:41.404Z,96733.22
2022-11-03T08:54:11.698Z,96733.34
2022-11-03T08:56:39.158Z,96750.97
2022-11-03T08:59:08.078Z,96721.47
2022-11-03T09:01:35.558Z,96739.66
2022-11-03T09:04:03.865Z,96734.22
2022-11-03T09:06:31.478Z,96743.09
2022-11-03T09:11:46.582Z,96738.00
2022-11-03T09:14:14.848Z,96723.91
2022-11-03T09:16:42.281Z,96739.31
2022-11-03T09:19:09.786Z,96738.31
2022-11-03T09:21:37.333Z,96747.75
2022-11-03T09:24:06.265Z,96738.41
2022-11-03T09:26:33.889Z,96740.31
2022-11-03T09:29:02.062Z,96732.19
2022-11-03T09:31:29.821Z,96730.56
2022-11-03T09:33:57.783Z,96733.75
2022-11-03T09:36:25.358Z,96739.28
2022-11-03T09:38:53.033Z,96720.22
2022-11-03T09:41:27.793Z,96746.28
2022-11-03T09:44:11.003Z,96752.81
2022-11-03T09:47:00.754Z,96733.28
2022-11-03T09:49:32.899Z,96738.03
2022-11-03T09:52:02.833Z,96723.88
2022-11-03T09:54:31.962Z,96736.41
2022-11-03T09:57:10.721Z,96746.34
2022-11-03T09:59:40.606Z,96740.41
2022-11-03T10:02:34.750Z,96727.16
2022-11-03T10:05:06.963Z,96749.03
2022-11-03T10:07:40.873Z,96733.78
2022-11-03T10:10:41.572Z,96750.47
2022-11-03T10:13:24.054Z,96748.16
2022-11-03T10:15:55.610Z,96730.13
2022-11-03T10:18:25.528Z,96750.47
2022-11-03T10:20:56.883Z,96726.53
2022-11-03T10:23:35.648Z,96711.91
2022-11-03T10:26:19.223Z,96743.38
2022-11-03T10:29:11.837Z,96719.72
2022-11-03T10:31:42.054Z,96726.94
2022-11-03T10:34:41.519Z,96761.22
2022-11-03T10:37:28.345Z,96725.63
2022-11-03T10:40:01.176Z,96721.19
2022-11-03T10:42:37.270Z,96719.31
2022-11-03T10:45:20.359Z,96751.13
2022-11-03T10:48:11.352Z,96734.69
2022-11-03T10:51:03.610Z,96758.91
2022-11-03T10:53:43.035Z,96740.75
2022-11-03T10:56:15.693Z,96765.56
2022-11-03T10:58:46.493Z,96733.69
2022-11-03T11:01:15.606Z,96762.91
2022-11-03T11:03:53.303Z,96735.84
2022-11-03T11:06:38.283Z,96728.72
2022-11-03T11:09:12.638Z,96756.88
2022-11-03T11:11:50.529Z,96748.34
2022-11-03T11:14:37.294Z,96767.50
2022-11-03T11:17:05.567Z,96769.22
2022-11-03T11:20:22.505Z,96778.28
2022-11-03T11:22:51.526Z,96754.66
2022-11-03T11:25:21.799Z,96761.09
2022-11-03T11:27:57.044Z,96773.47
2022-11-03T11:30:31.721Z,96770.34
2022-11-03T11:33:23.301Z,96778.88
2022-11-03T11:35:53.970Z,96773.72
2022-11-03T11:38:55.719Z,96778.53
2022-11-03T11:42:01.353Z,96777.34
2022-11-03T11:44:44.187Z,96777.34
2022-11-03T11:47:23.471Z,96784.16
2022-11-03T11:50:06.383Z,96776.84
2022-11-03T11:52:44.664Z,96786.28
2022-11-03T11:55:19.769Z,96783.47
2022-11-03T11:57:50.272Z,96788.94
2022-11-03T12:00:25.054Z,96785.94
2022-11-03T12:02:56.577Z,96788.94
2022-11-03T12:05:28.930Z,96796.75
2022-11-03T12:07:56.735Z,96791.44
2022-11-03T12:10:29.229Z,96793.22
2022-11-03T12:12:58.018Z,96792.19
2022-11-03T12:15:54.500Z,96797.56
2022-11-03T12:18:49.367Z,96786.47
2022-11-03T12:21:49.741Z,96800.84
2022-11-03T12:24:32.650Z,96804.13
2022-11-03T12:27:00.873Z,96802.19
2022-11-03T12:29:28.339Z,96797.75
2022-11-03T12:31:56.579Z,96798.09
2022-11-03T12:34:24.568Z,96802.22
2022-11-03T12:36:56.208Z,96798.44
2022-11-03T12:39:23.900Z,96788.59
2022-11-03T12:41:51.465Z,96805.38
2022-11-03T12:44:19.056Z,96807.91
2022-11-03T12:46:46.614Z,96792.19
2022-11-03T12:49:16.922Z,96799.38
2022-11-03T12:51:44.509Z,96805.84
2022-11-03T12:54:12.025Z,96808.38
2022-11-03T12:56:39.410Z,96806.59
2022-11-03T12:59:07.231Z,96815.88
2022-11-03T13:01:38.299Z,96819.13
2022-11-03T13:04:09.078Z,96820.34
2022-11-03T13:06:36.904Z,96812.13
2022-11-03T13:09:04.353Z,96821.78
2022-11-03T13:11:50.593Z,96824.03
2022-11-03T13:14:18.004Z,96819.81
2022-11-03T13:16:48.173Z,96831.13
2022-11-03T13:19:15.845Z,96821.56
2022-11-03T13:21:43.533Z,96825.88
2022-11-03T13:24:11.524Z,96811.22
2022-11-03T13:26:40.536Z,96807.81
2022-11-03T13:29:08.053Z,96813.56
2022-11-03T13:31:36.025Z,96814.88
2022-11-03T13:34:06.140Z,96830.63
2022-11-03T13:36:34.746Z,96813.00
2022-11-03T13:39:10.586Z,96802.03
2022-11-03T13:41:41.228Z,96831.97
2022-11-03T13:44:09.156Z,96833.94
2022-11-03T13:46:38.754Z,96832.53
2022-11-03T13:49:45.011Z,96839.28
2022-11-03T13:51:53.918Z,96833.31
2022-11-03T13:59:58.981Z,96834.38
2022-11-03T14:05:17.457Z,96837.50
2022-11-03T14:07:45.394Z,96834.56
2022-11-03T14:10:12.842Z,96837.56
2022-11-03T14:12:40.211Z,96838.50
2022-11-03T14:15:11.362Z,96846.25
2022-11-03T14:17:40.587Z,96830.97
2022-11-03T14:20:11.149Z,96846.59
2022-11-03T14:22:40.517Z,96839.28
2022-11-03T14:25:09.074Z,96832.19
2022-11-03T14:27:38.034Z,96818.47
2022-11-03T14:30:10.293Z,96824.34
2022-11-03T14:32:37.991Z,96847.84
2022-11-03T14:35:06.567Z,96847.97
2022-11-03T14:37:34.175Z,96861.66
2022-11-03T14:40:01.689Z,96864.69
2022-11-03T14:42:29.160Z,96864.91
2022-11-03T14:44:56.575Z,96858.56
2022-11-03T14:47:25.745Z,96858.69
2022-11-03T14:49:54.135Z,96866.16
2022-11-03T14:52:21.575Z,96863.59
2022-11-03T14:54:49.008Z,96868.06
2022-11-03T14:57:16.679Z,96856.38
2022-11-03T14:59:46.727Z,96868.16
2022-11-03T15:02:16.834Z,96861.06
2022-11-03T15:04:44.453Z,96885.78
2022-11-03T15:07:11.806Z,96880.56
2022-11-03T15:09:39.177Z,96867.03
2022-11-03T15:12:06.839Z,96863.94
2022-11-03T15:14:34.202Z,96875.56
2022-11-03T15:17:01.553Z,96893.53
2022-11-03T15:19:29.159Z,96884.75
2022-11-03T15:21:56.509Z,96883.84
2022-11-03T15:27:13.161Z,96881.44
2022-11-03T15:29:40.594Z,96879.63
2022-11-03T15:32:08.014Z,96873.63
2022-11-03T15:34:35.342Z,96884.56
2022-11-03T15:37:02.762Z,96881.38
2022-11-03T15:39:30.248Z,96861.63
2022-11-03T15:41:57.716Z,96874.50
2022-11-03T15:44:25.244Z,96882.06
2022-11-03T15:46:52.806Z,96876.94
2022-11-03T15:49:20.284Z,96897.44
2022-11-03T15:51:48.440Z,96885.00
2022-11-03T15:54:19.243Z,96898.53
2022-11-03T15:56:48.830Z,96895.88
2022-11-03T15:59:16.438Z,96895.75
2022-11-03T16:01:44.026Z,96892.88
2022-11-03T16:04:11.767Z,96903.09
2022-11-03T16:07:07.499Z,96905.28
2022-11-03T16:09:26.577Z,96903.53
2022-11-03T16:11:55.498Z,96901.88
2022-11-03T16:14:23.092Z,96897.16
2022-11-03T16:16:50.568Z,96895.75
2022-11-03T16:19:18.100Z,96898.34
2022-11-03T16:21:45.660Z,96898.13
2022-11-03T16:24:15.477Z,96900.69
2022-11-03T16:30:32.061Z,96896.59
2022-11-03T16:33:07.720Z,96863.53
2022-11-03T16:35:35.783Z,96871.59
2022-11-03T16:38:09.347Z,96868.94
2022-11-03T16:40:37.612Z,96881.97
2022-11-03T16:43:05.070Z,96905.50
2022-11-03T16:45:37.567Z,96907.38
2022-11-03T16:48:07.421Z,96906.28
2022-11-03T16:50:35.502Z,96909.75
2022-11-03T16:53:06.954Z,96900.00
2022-11-03T16:55:36.416Z,96900.84
2022-11-03T16:58:10.137Z,96908.66
2022-11-03T17:00:37.711Z,96906.75
2022-11-03T17:03:14.068Z,96902.19
2022-11-03T17:05:42.276Z,96905.31
2022-11-03T17:08:31.670Z,96911.41
2022-11-03T17:10:58.372Z,96896.31
2022-11-03T17:13:25.918Z,96906.41
2022-11-03T17:15:53.503Z,96912.97
2022-11-03T17:18:21.081Z,96904.84
2022-11-03T17:20:48.624Z,96909.31
2022-11-03T17:23:16.087Z,96908.09
2022-11-03T17:25:43.766Z,96917.19
2022-11-03T17:28:14.080Z,96912.63
2022-11-03T17:30:41.574Z,96917.63
2022-11-03T17:33:13.451Z,96922.72
2022-11-03T17:35:43.674Z,96920.97
2022-11-03T17:38:15.004Z,96914.06
2022-11-03T17:40:45.155Z,96912.31
2022-11-03T17:43:31.672Z,96922.75
2022-11-03T17:45:59.813Z,96902.00
2022-11-03T17:48:27.401Z,96905.00
2022-11-03T17:50:56.678Z,96924.75
2022-11-03T17:53:27.351Z,96923.31
2022-11-03T17:58:46.824Z,96916.31
2022-11-03T18:01:24.646Z,96913.66
2022-11-03T18:03:55.127Z,96907.22
2022-11-03T18:06:22.753Z,96918.75
2022-11-03T18:08:50.512Z,96920.66
2022-11-03T18:11:48.129Z,96916.44
2022-11-03T18:14:16.454Z,96914.19
2022-11-03T18:16:44.070Z,96922.13
2022-11-03T18:19:17.664Z,96916.44
2022-11-03T18:21:47.257Z,96920.44
2022-11-03T18:24:20.697Z,96926.31
2022-11-03T18:26:49.210Z,96897.91
2022-11-03T18:29:17.084Z,96888.00
2022-11-03T18:31:49.969Z,96881.03
2022-11-03T18:34:24.542Z,96897.69
2022-11-03T18:36:53.114Z,96900.25
2022-11-03T18:39:30.435Z,96920.22
2022-11-03T18:41:58.088Z,96884.47
2022-11-03T18:44:34.717Z,96893.91
2022-11-03T18:47:08.403Z,96903.47
2022-11-03T18:49:37.578Z,96919.91
2022-11-03T18:52:16.386Z,96916.69
2022-11-03T18:54:56.089Z,96887.25
2022-11-03T18:57:28.160Z,96901.38
2022-11-03T18:59:56.126Z,96907.25
2022-11-03T19:02:31.416Z,96917.22
2022-11-03T19:04:59.187Z,96914.00
2022-11-03T19:07:33.454Z,96916.00
2022-11-03T19:10:06.055Z,96916.44
2022-11-03T19:12:39.297Z,96886.03
2022-11-03T19:15:11.592Z,96898.88
2022-11-03T19:17:41.841Z,96903.69
2022-11-03T19:20:14.596Z,96917.91
2022-11-03T19:22:49.863Z,96906.56
2022-11-03T19:25:20.935Z,96919.00
2022-11-03T19:27:52.869Z,96901.78
2022-11-03T19:30:22.665Z,96885.81
2022-11-03T19:33:23.287Z,96928.78
2022-11-03T19:35:58.717Z,96912.69
2022-11-03T19:38:39.480Z,96890.13
2022-11-03T19:41:33.600Z,96910.91
2022-11-03T19:44:01.868Z,96914.91
2022-11-03T19:46:29.745Z,96917.78
2022-11-03T19:49:02.812Z,96916.69
2022-11-03T19:51:33.283Z,96917.03
2022-11-03T19:54:01.541Z,96916.44
2022-11-03T19:56:29.137Z,96923.56
2022-11-03T19:58:57.007Z,96922.03
2022-11-03T20:01:24.581Z,96918.13
2022-11-03T20:03:52.918Z,96911.25
2022-11-03T20:06:20.680Z,96919.47
2022-11-03T20:08:48.347Z,96919.13
2022-11-03T20:11:15.876Z,96921.34
2022-11-03T20:13:46.853Z,96925.00
2022-11-03T20:16:17.372Z,96927.44
2022-11-03T20:18:44.951Z,96917.47
2022-11-03T20:21:16.780Z,96903.91
2022-11-03T20:23:49.577Z,96921.34
2022-11-03T20:26:20.583Z,96898.03
2022-11-03T20:28:50.586Z,96914.13
2022-11-03T20:31:18.500Z,96921.44
2022-11-03T20:33:46.053Z,96916.44
2022-11-03T20:36:19.302Z,96918.66
2022-11-03T20:38:52.878Z,96921.78
2022-11-03T20:41:20.441Z,96920.88
2022-11-03T20:43:48.322Z,96918.91
2022-11-03T20:46:21.662Z,96920.56
2022-11-03T20:48:49.858Z,96912.00
2022-11-03T20:51:20.166Z,96911.78
2022-11-03T20:53:48.112Z,96900.78
2022-11-03T20:56:19.798Z,96918.56
2022-11-03T20:58:48.302Z,96910.44
2022-11-03T21:01:18.552Z,96911.31
2022-11-03T21:03:58.794Z,96919.09
2022-11-03T21:06:28.717Z,96918.00
2022-11-03T21:08:56.566Z,96919.44
2022-11-03T21:11:30.025Z,96928.66
2022-11-03T21:14:00.453Z,96921.31
2022-11-03T21:16:48.191Z,96926.88
2022-11-03T21:19:35.487Z,96918.56
2022-11-03T21:22:03.043Z,96924.78
2022-11-03T21:24:30.442Z,96914.22
2022-11-03T21:26:58.053Z,96923.75
2022-11-03T21:29:53.382Z,96921.66
2022-11-03T21:32:16.312Z,96926.75
2022-11-03T21:34:44.484Z,96933.88
2022-11-03T21:37:17.631Z,96931.00
2022-11-03T21:39:45.190Z,96927.53
2022-11-03T21:42:33.465Z,96932.63
2022-11-03T21:45:01.292Z,96924.44
2022-11-03T21:47:31.435Z,96933.41
2022-11-03T21:52:34.323Z,96926.63
2022-11-03T21:55:04.494Z,96924.84
2022-11-03T21:57:32.423Z,96935.44
2022-11-03T21:59:59.997Z,96926.97
2022-11-03T22:02:30.261Z,96920.19
2022-11-03T22:04:58.316Z,96928.41
2022-11-03T22:07:25.885Z,96923.88
2022-11-03T22:09:53.378Z,96909.66
2022-11-03T22:12:20.960Z,96918.31
2022-11-03T22:15:06.696Z,96919.97
2022-11-03T22:17:34.169Z,96913.28
2022-11-03T22:20:19.926Z,96911.72
2022-11-03T22:23:05.753Z,96915.72
2022-11-03T22:25:51.451Z,96918.81
2022-11-03T22:28:19.225Z,96917.03
2022-11-03T22:31:05.347Z,96922.81
2022-11-03T22:33:53.390Z,96921.69
2022-11-03T22:36:27.291Z,96919.72
2022-11-03T22:39:13.132Z,96921.31
2022-11-03T22:42:03.548Z,96916.00
2022-11-03T22:44:52.402Z,96919.91
2022-11-03T22:47:19.998Z,96915.69
2022-11-03T22:49:47.501Z,96913.13
2022-11-03T22:52:15.918Z,96918.22
2022-11-03T22:54:44.106Z,96914.00
2022-11-03T22:57:11.834Z,96911.44
2022-11-03T22:59:39.338Z,96913.44
2022-11-03T23:02:07.076Z,96913.09
2022-11-03T23:04:34.756Z,96921.31
2022-11-03T23:07:02.256Z,96916.66
2022-11-03T23:09:29.795Z,96895.47
2022-11-03T23:11:57.253Z,96934.09
2022-11-03T23:15:06.804Z,96934.06
2022-11-03T23:17:52.648Z,96931.44
2022-11-03T23:20:38.423Z,96932.88
2022-11-03T23:23:06.189Z,96935.13
2022-11-03T23:25:33.721Z,96930.13
2022-11-03T23:28:01.152Z,96934.38
2022-11-03T23:30:28.634Z,96932.47
2022-11-03T23:32:56.140Z,96933.50
2022-11-03T23:35:23.533Z,96929.63
2022-11-03T23:37:50.992Z,96927.28
2022-11-03T23:40:20.512Z,96938.75
2022-11-03T23:42:49.037Z,96928.19
2022-11-03T23:45:34.883Z,96933.88
2022-11-03T23:48:20.603Z,96934.41
2022-11-03T23:50:47.926Z,96939.09
2022-11-03T23:53:15.223Z,96933.00
2022-11-03T23:56:01.064Z,96929.09
2022-11-03T23:58:28.684Z,96920.34
